sensor_id;sensor_type;location;lat;lon;timestamp;temperature;humidity
23801;DHT22;12081;48.614;10.226;2023-04-01T00:00:49;6.50;99.90
23801;DHT22;12081;48.614;10.226;2023-04-01T00:03:34;6.40;99.90
23801;DHT22;12081;48.614;10.226;2023-04-01T00:06:19;6.40;99.90
23801;DHT22;12081;48.614;10.226;2023-04-01T00:09:03;6.40;99.90
23801;DHT22;12081;48.614;10.226;2023-04-01T00:11:47;6.40;99.90
23801;DHT22;12081;48.614;10.226;2023-04-01T00:14:32;6.40;99.90
23801;DHT22;12081;48.614;10.226;2023-04-01T00:17:16;6.40;99.90
23801;DHT22;12081;48.614;10.226;2023-04-01T00:20:00;6.40;99.90
23801;DHT22;12081;48.614;10.226;2023-04-01T00:22:45;6.40;99.90
23801;DHT22;12081;48.614;10.226;2023-04-01T00:25:29;6.40;99.90
23801;DHT22;12081;48.614;10.226;2023-04-01T00:28:15;6.40;99.90
23801;DHT22;12081;48.614;10.226;2023-04-01T00:31:04;6.40;99.90
23801;DHT22;12081;48.614;10.226;2023-04-01T00:33:48;6.40;99.90
23801;DHT22;12081;48.614;10.226;2023-04-01T00:36:33;6.40;99.90
23801;DHT22;12081;48.614;10.226;2023-04-01T00:39:18;6.40;99.90
23801;DHT22;12081;48.614;10.226;2023-04-01T00:42:03;6.50;99.90
23801;DHT22;12081;48.614;10.226;2023-04-01T00:44:52;6.40;99.90
23801;DHT22;12081;48.614;10.226;2023-04-01T00:47:36;6.40;99.90
23801;DHT22;12081;48.614;10.226;2023-04-01T00:50:22;6.40;99.90
23801;DHT22;12081;48.614;10.226;2023-04-01T00:53:09;6.40;99.90
23801;DHT22;12081;48.614;10.226;2023-04-01T00:56:35;6.40;99.90
23801;DHT22;12081;48.614;10.226;2023-04-01T00:59:25;6.30;99.90
23801;DHT22;12081;48.614;10.226;2023-04-01T01:02:11;6.20;99.90
23801;DHT22;12081;48.614;10.226;2023-04-01T01:04:56;6.20;99.90
23801;DHT22;12081;48.614;10.226;2023-04-01T01:07:47;6.20;99.90
23801;DHT22;12081;48.614;10.226;2023-04-01T01:10:39;6.30;99.90
23801;DHT22;12081;48.614;10.226;2023-04-01T01:13:34;6.30;99.90
23801;DHT22;12081;48.614;10.226;2023-04-01T01:16:27;6.20;99.90
23801;DHT22;12081;48.614;10.226;2023-04-01T01:19:46;6.10;99.90
23801;DHT22;12081;48.614;10.226;2023-04-01T01:22:52;6.00;99.90
23801;DHT22;12081;48.614;10.226;2023-04-01T01:26:06;6.00;99.90
23801;DHT22;12081;48.614;10.226;2023-04-01T01:29:03;5.90;99.90
23801;DHT22;12081;48.614;10.226;2023-04-01T01:38:05;5.70;99.90
23801;DHT22;12081;48.614;10.226;2023-04-01T01:40:52;5.70;99.90
23801;DHT22;12081;48.614;10.226;2023-04-01T01:43:43;5.80;99.90
23801;DHT22;12081;48.614;10.226;2023-04-01T01:46:30;5.80;99.90
23801;DHT22;12081;48.614;10.226;2023-04-01T01:49:15;5.90;99.90
23801;DHT22;12081;48.614;10.226;2023-04-01T01:52:00;5.90;99.90
23801;DHT22;12081;48.614;10.226;2023-04-01T01:54:49;5.90;99.90
23801;DHT22;12081;48.614;10.226;2023-04-01T01:57:36;5.90;99.90
23801;DHT22;12081;48.614;10.226;2023-04-01T02:00:22;5.90;99.90
23801;DHT22;12081;48.614;10.226;2023-04-01T02:03:07;5.90;99.90
23801;DHT22;12081;48.614;10.226;2023-04-01T02:05:53;5.90;99.90
23801;DHT22;12081;48.614;10.226;2023-04-01T02:08:49;5.90;99.90
23801;DHT22;12081;48.614;10.226;2023-04-01T02:12:01;6.00;99.90
23801;DHT22;12081;48.614;10.226;2023-04-01T02:15:09;6.00;99.90
23801;DHT22;12081;48.614;10.226;2023-04-01T02:17:54;6.00;99.90
23801;DHT22;12081;48.614;10.226;2023-04-01T02:20:41;6.00;99.90
23801;DHT22;12081;48.614;10.226;2023-04-01T02:23:26;6.00;99.90
23801;DHT22;12081;48.614;10.226;2023-04-01T02:26:12;6.10;99.90
23801;DHT22;12081;48.614;10.226;2023-04-01T02:28:58;6.10;99.90
23801;DHT22;12081;48.614;10.226;2023-04-01T02:31:43;6.10;99.90
23801;DHT22;12081;48.614;10.226;2023-04-01T02:34:28;6.10;99.90
23801;DHT22;12081;48.614;10.226;2023-04-01T02:37:13;6.20;99.90
23801;DHT22;12081;48.614;10.226;2023-04-01T02:40:05;6.20;99.90
23801;DHT22;12081;48.614;10.226;2023-04-01T02:42:51;6.20;99.90
23801;DHT22;12081;48.614;10.226;2023-04-01T02:45:43;6.20;99.90
23801;DHT22;12081;48.614;10.226;2023-04-01T02:48:28;8.10;99.90
23801;DHT22;12081;48.614;10.226;2023-04-01T02:51:12;7.80;99.90
23801;DHT22;12081;48.614;10.226;2023-04-01T02:54:04;6.60;99.90
23801;DHT22;12081;48.614;10.226;2023-04-01T02:56:48;8.60;99.90
23801;DHT22;12081;48.614;10.226;2023-04-01T02:59:32;8.00;99.90
23801;DHT22;12081;48.614;10.226;2023-04-01T03:02:16;7.50;99.90
23801;DHT22;12081;48.614;10.226;2023-04-01T03:05:01;7.80;99.90
23801;DHT22;12081;48.614;10.226;2023-04-01T03:07:45;8.40;99.90
23801;DHT22;12081;48.614;10.226;2023-04-01T03:10:30;6.10;99.90
23801;DHT22;12081;48.614;10.226;2023-04-01T03:13:14;8.10;99.90
23801;DHT22;12081;48.614;10.226;2023-04-01T03:15:58;7.90;99.90
23801;DHT22;12081;48.614;10.226;2023-04-01T03:18:43;7.80;99.90
23801;DHT22;12081;48.614;10.226;2023-04-01T03:21:34;7.40;99.90
23801;DHT22;12081;48.614;10.226;2023-04-01T03:24:19;6.90;99.90
23801;DHT22;12081;48.614;10.226;2023-04-01T03:27:04;7.80;99.90
23801;DHT22;12081;48.614;10.226;2023-04-01T03:29:48;7.20;99.90
23801;DHT22;12081;48.614;10.226;2023-04-01T03:32:33;7.40;99.90
23801;DHT22;12081;48.614;10.226;2023-04-01T03:35:17;7.20;99.90
23801;DHT22;12081;48.614;10.226;2023-04-01T03:38:01;7.30;99.90
23801;DHT22;12081;48.614;10.226;2023-04-01T03:40:46;8.50;99.90
23801;DHT22;12081;48.614;10.226;2023-04-01T03:43:30;7.90;99.90
23801;DHT22;12081;48.614;10.226;2023-04-01T03:46:18;7.10;99.90
23801;DHT22;12081;48.614;10.226;2023-04-01T03:49:06;7.40;99.90
23801;DHT22;12081;48.614;10.226;2023-04-01T03:51:55;6.70;99.90
23801;DHT22;12081;48.614;10.226;2023-04-01T03:54:39;7.20;99.90
23801;DHT22;12081;48.614;10.226;2023-04-01T03:57:23;8.30;99.90
23801;DHT22;12081;48.614;10.226;2023-04-01T04:00:08;7.10;99.90
23801;DHT22;12081;48.614;10.226;2023-04-01T04:02:52;5.60;99.90
23801;DHT22;12081;48.614;10.226;2023-04-01T04:05:37;7.10;99.90
23801;DHT22;12081;48.614;10.226;2023-04-01T04:08:21;7.50;99.90
23801;DHT22;12081;48.614;10.226;2023-04-01T04:11:06;7.30;99.90
23801;DHT22;12081;48.614;10.226;2023-04-01T04:13:50;5.50;99.90
23801;DHT22;12081;48.614;10.226;2023-04-01T04:16:36;7.50;99.90
23801;DHT22;12081;48.614;10.226;2023-04-01T04:19:20;7.60;99.90
23801;DHT22;12081;48.614;10.226;2023-04-01T04:22:05;5.30;99.90
23801;DHT22;12081;48.614;10.226;2023-04-01T04:24:49;6.80;99.90
23801;DHT22;12081;48.614;10.226;2023-04-01T04:27:34;7.30;99.90
23801;DHT22;12081;48.614;10.226;2023-04-01T04:30:18;7.10;99.90
23801;DHT22;12081;48.614;10.226;2023-04-01T04:33:02;5.40;99.90
23801;DHT22;12081;48.614;10.226;2023-04-01T04:35:46;5.40;99.90
23801;DHT22;12081;48.614;10.226;2023-04-01T04:38:30;6.60;99.90
23801;DHT22;12081;48.614;10.226;2023-04-01T04:41:17;6.10;99.90
23801;DHT22;12081;48.614;10.226;2023-04-01T04:44:01;4.90;99.90
23801;DHT22;12081;48.614;10.226;2023-04-01T04:46:46;6.60;99.90
23801;DHT22;12081;48.614;10.226;2023-04-01T04:49:31;7.50;99.90
23801;DHT22;12081;48.614;10.226;2023-04-01T04:52:15;7.60;99.90
23801;DHT22;12081;48.614;10.226;2023-04-01T04:54:59;6.80;99.90
23801;DHT22;12081;48.614;10.226;2023-04-01T04:57:43;6.30;99.90
23801;DHT22;12081;48.614;10.226;2023-04-01T05:00:28;7.30;99.90
23801;DHT22;12081;48.614;10.226;2023-04-01T05:03:12;6.30;99.90
23801;DHT22;12081;48.614;10.226;2023-04-01T05:05:56;7.40;99.90
23801;DHT22;12081;48.614;10.226;2023-04-01T05:08:41;6.00;99.90
23801;DHT22;12081;48.614;10.226;2023-04-01T05:11:26;4.40;99.90
23801;DHT22;12081;48.614;10.226;2023-04-01T05:14:17;4.80;99.90
23801;DHT22;12081;48.614;10.226;2023-04-01T05:17:01;6.20;99.90
23801;DHT22;12081;48.614;10.226;2023-04-01T05:19:45;7.00;99.90
23801;DHT22;12081;48.614;10.226;2023-04-01T05:22:29;4.40;99.90
23801;DHT22;12081;48.614;10.226;2023-04-01T05:25:14;6.70;99.90
23801;DHT22;12081;48.614;10.226;2023-04-01T05:27:58;6.80;99.90
23801;DHT22;12081;48.614;10.226;2023-04-01T05:34:05;4.80;99.90
23801;DHT22;12081;48.614;10.226;2023-04-01T05:36:49;6.70;99.90
23801;DHT22;12081;48.614;10.226;2023-04-01T05:39:38;6.40;99.90
23801;DHT22;12081;48.614;10.226;2023-04-01T05:42:22;6.90;99.90
23801;DHT22;12081;48.614;10.226;2023-04-01T05:45:06;5.80;99.90
23801;DHT22;12081;48.614;10.226;2023-04-01T05:47:51;5.20;99.90
23801;DHT22;12081;48.614;10.226;2023-04-01T05:50:35;7.60;99.90
23801;DHT22;12081;48.614;10.226;2023-04-01T05:53:19;7.70;99.90
23801;DHT22;12081;48.614;10.226;2023-04-01T05:56:04;7.20;99.90
23801;DHT22;12081;48.614;10.226;2023-04-01T05:58:52;5.60;99.90
23801;DHT22;12081;48.614;10.226;2023-04-01T06:01:37;7.10;99.90
23801;DHT22;12081;48.614;10.226;2023-04-01T06:04:21;7.50;99.90
23801;DHT22;12081;48.614;10.226;2023-04-01T06:07:13;7.50;99.90
23801;DHT22;12081;48.614;10.226;2023-04-01T06:09:58;7.80;99.90
23801;DHT22;12081;48.614;10.226;2023-04-01T06:22:35;6.40;99.90
23801;DHT22;12081;48.614;10.226;2023-04-01T06:25:24;6.50;99.90
23801;DHT22;12081;48.614;10.226;2023-04-01T06:28:41;9.40;99.90
23801;DHT22;12081;48.614;10.226;2023-04-01T06:31:51;9.60;99.90
23801;DHT22;12081;48.614;10.226;2023-04-01T06:44:16;7.80;99.90
23801;DHT22;12081;48.614;10.226;2023-04-01T06:47:33;8.00;99.90
23801;DHT22;12081;48.614;10.226;2023-04-01T06:54:02;7.90;99.90
23801;DHT22;12081;48.614;10.226;2023-04-01T06:56:49;8.40;99.90
23801;DHT22;12081;48.614;10.226;2023-04-01T06:59:39;12.20;99.90
23801;DHT22;12081;48.614;10.226;2023-04-01T07:02:36;10.10;99.90
23801;DHT22;12081;48.614;10.226;2023-04-01T07:05:22;10.30;99.90
23801;DHT22;12081;48.614;10.226;2023-04-01T07:08:10;11.80;99.90
23801;DHT22;12081;48.614;10.226;2023-04-01T07:11:08;12.00;99.90
23801;DHT22;12081;48.614;10.226;2023-04-01T07:13:58;9.80;99.90
23801;DHT22;12081;48.614;10.226;2023-04-01T07:16:48;11.40;99.90
23801;DHT22;12081;48.614;10.226;2023-04-01T07:22:38;9.10;99.90
23801;DHT22;12081;48.614;10.226;2023-04-01T07:25:27;9.10;99.90
23801;DHT22;12081;48.614;10.226;2023-04-01T07:28:14;8.90;99.90
23801;DHT22;12081;48.614;10.226;2023-04-01T07:34:16;8.60;99.90
23801;DHT22;12081;48.614;10.226;2023-04-01T07:49:20;11.10;99.90
23801;DHT22;12081;48.614;10.226;2023-04-01T07:52:08;9.90;99.90
23801;DHT22;12081;48.614;10.226;2023-04-01T07:55:15;10.50;99.90
23801;DHT22;12081;48.614;10.226;2023-04-01T08:00:54;10.50;99.90
23801;DHT22;12081;48.614;10.226;2023-04-01T08:13:51;8.30;99.90
23801;DHT22;12081;48.614;10.226;2023-04-01T08:22:35;9.60;99.90
23801;DHT22;12081;48.614;10.226;2023-04-01T08:25:28;10.10;99.90
23801;DHT22;12081;48.614;10.226;2023-04-01T08:31:39;8.50;99.90
23801;DHT22;12081;48.614;10.226;2023-04-01T08:34:31;9.40;99.90
23801;DHT22;12081;48.614;10.226;2023-04-01T08:37:29;11.80;99.90
23801;DHT22;12081;48.614;10.226;2023-04-01T08:43:55;9.10;99.90
23801;DHT22;12081;48.614;10.226;2023-04-01T09:08:37;8.80;99.90
23801;DHT22;12081;48.614;10.226;2023-04-01T09:11:44;8.40;99.90
23801;DHT22;12081;48.614;10.226;2023-04-01T09:15:06;9.90;99.90
23801;DHT22;12081;48.614;10.226;2023-04-01T09:18:27;8.30;99.90
23801;DHT22;12081;48.614;10.226;2023-04-01T09:21:32;8.10;99.90
23801;DHT22;12081;48.614;10.226;2023-04-01T09:27:29;8.10;99.90
23801;DHT22;12081;48.614;10.226;2023-04-01T09:36:50;10.40;99.90
23801;DHT22;12081;48.614;10.226;2023-04-01T09:40:01;9.90;99.90
23801;DHT22;12081;48.614;10.226;2023-04-01T09:43:15;7.70;99.90
23801;DHT22;12081;48.614;10.226;2023-04-01T09:46:07;7.70;99.90
23801;DHT22;12081;48.614;10.226;2023-04-01T09:49:33;10.10;99.90
23801;DHT22;12081;48.614;10.226;2023-04-01T09:52:54;7.80;99.90
23801;DHT22;12081;48.614;10.226;2023-04-01T09:58:51;7.70;99.90
23801;DHT22;12081;48.614;10.226;2023-04-01T10:02:08;7.70;99.90
23801;DHT22;12081;48.614;10.226;2023-04-01T10:18:48;7.70;99.90
23801;DHT22;12081;48.614;10.226;2023-04-01T10:36:52;7.60;99.90
23801;DHT22;12081;48.614;10.226;2023-04-01T10:46:00;7.80;99.90
23801;DHT22;12081;48.614;10.226;2023-04-01T10:56:14;8.20;99.90
23801;DHT22;12081;48.614;10.226;2023-04-01T11:08:33;8.10;99.90
23801;DHT22;12081;48.614;10.226;2023-04-01T11:36:32;8.60;99.90
23801;DHT22;12081;48.614;10.226;2023-04-01T11:42:24;8.50;99.90
23801;DHT22;12081;48.614;10.226;2023-04-01T11:48:24;8.50;99.90
23801;DHT22;12081;48.614;10.226;2023-04-01T11:54:38;8.40;99.90
23801;DHT22;12081;48.614;10.226;2023-04-01T12:09:42;8.30;99.90
23801;DHT22;12081;48.614;10.226;2023-04-01T12:18:50;8.30;99.90
23801;DHT22;12081;48.614;10.226;2023-04-01T12:21:38;8.30;99.90
23801;DHT22;12081;48.614;10.226;2023-04-01T12:27:41;8.50;99.90
23801;DHT22;12081;48.614;10.226;2023-04-01T12:33:42;8.60;99.90
23801;DHT22;12081;48.614;10.226;2023-04-01T12:37:07;8.60;99.90
23801;DHT22;12081;48.614;10.226;2023-04-01T12:39:59;8.70;99.90
23801;DHT22;12081;48.614;10.226;2023-04-01T12:46:13;9.40;99.90
23801;DHT22;12081;48.614;10.226;2023-04-01T12:55:40;9.00;99.90
23801;DHT22;12081;48.614;10.226;2023-04-01T12:58:54;9.10;99.90
23801;DHT22;12081;48.614;10.226;2023-04-01T13:02:06;9.00;99.90
23801;DHT22;12081;48.614;10.226;2023-04-01T13:05:15;9.00;99.90
23801;DHT22;12081;48.614;10.226;2023-04-01T13:08:24;9.00;99.90
23801;DHT22;12081;48.614;10.226;2023-04-01T13:11:41;9.10;99.90
23801;DHT22;12081;48.614;10.226;2023-04-01T13:23:32;12.40;99.90
23801;DHT22;12081;48.614;10.226;2023-04-01T13:26:37;9.60;99.90
23801;DHT22;12081;48.614;10.226;2023-04-01T13:32:47;9.30;99.90
23801;DHT22;12081;48.614;10.226;2023-04-01T13:35:57;9.10;99.90
23801;DHT22;12081;48.614;10.226;2023-04-01T13:41:43;8.90;99.90
23801;DHT22;12081;48.614;10.226;2023-04-01T13:44:45;8.80;99.90
23801;DHT22;12081;48.614;10.226;2023-04-01T13:54:35;8.80;99.90
23801;DHT22;12081;48.614;10.226;2023-04-01T14:06:18;9.10;99.90
23801;DHT22;12081;48.614;10.226;2023-04-01T14:09:29;9.20;99.90
23801;DHT22;12081;48.614;10.226;2023-04-01T14:12:30;9.20;99.90
23801;DHT22;12081;48.614;10.226;2023-04-01T14:24:42;9.20;99.90
23801;DHT22;12081;48.614;10.226;2023-04-01T14:28:01;9.20;99.90
23801;DHT22;12081;48.614;10.226;2023-04-01T14:34:09;9.20;99.90
23801;DHT22;12081;48.614;10.226;2023-04-01T14:44:09;9.10;99.90
23801;DHT22;12081;48.614;10.226;2023-04-01T14:49:32;9.20;99.90
23801;DHT22;12081;48.614;10.226;2023-04-01T14:52:27;9.20;99.90
23801;DHT22;12081;48.614;10.226;2023-04-01T14:55:31;9.10;99.90
23801;DHT22;12081;48.614;10.226;2023-04-01T14:58:18;9.10;99.90
23801;DHT22;12081;48.614;10.226;2023-04-01T15:04:20;9.10;99.90
23801;DHT22;12081;48.614;10.226;2023-04-01T15:10:33;9.20;99.90
23801;DHT22;12081;48.614;10.226;2023-04-01T15:19:58;9.10;99.90
23801;DHT22;12081;48.614;10.226;2023-04-01T15:36:15;9.10;99.90
23801;DHT22;12081;48.614;10.226;2023-04-01T15:39:09;9.10;99.90
23801;DHT22;12081;48.614;10.226;2023-04-01T15:45:42;9.20;99.90
23801;DHT22;12081;48.614;10.226;2023-04-01T15:51:28;9.30;99.90
23801;DHT22;12081;48.614;10.226;2023-04-01T15:54:25;9.30;99.90
23801;DHT22;12081;48.614;10.226;2023-04-01T15:57:14;9.30;99.90
23801;DHT22;12081;48.614;10.226;2023-04-01T16:06:01;9.20;99.90
23801;DHT22;12081;48.614;10.226;2023-04-01T16:08:56;9.10;99.90
23801;DHT22;12081;48.614;10.226;2023-04-01T16:11:54;9.10;99.90
23801;DHT22;12081;48.614;10.226;2023-04-01T16:14:54;9.00;99.90
23801;DHT22;12081;48.614;10.226;2023-04-01T16:21:07;8.80;99.90
23801;DHT22;12081;48.614;10.226;2023-04-01T16:23:58;8.80;99.90
23801;DHT22;12081;48.614;10.226;2023-04-01T16:30:22;8.70;99.90
23801;DHT22;12081;48.614;10.226;2023-04-01T16:33:19;8.60;99.90
23801;DHT22;12081;48.614;10.226;2023-04-01T16:36:26;8.50;99.90
23801;DHT22;12081;48.614;10.226;2023-04-01T16:42:19;8.40;99.90
23801;DHT22;12081;48.614;10.226;2023-04-01T16:45:16;8.30;99.90
23801;DHT22;12081;48.614;10.226;2023-04-01T16:48:15;8.20;99.90
23801;DHT22;12081;48.614;10.226;2023-04-01T16:51:14;8.20;99.90
23801;DHT22;12081;48.614;10.226;2023-04-01T17:03:04;8.10;99.90
23801;DHT22;12081;48.614;10.226;2023-04-01T17:11:56;8.00;99.90
23801;DHT22;12081;48.614;10.226;2023-04-01T17:18:19;7.80;99.90
23801;DHT22;12081;48.614;10.226;2023-04-01T17:20:56;7.80;99.90
23801;DHT22;12081;48.614;10.226;2023-04-01T17:24:10;7.80;99.90
23801;DHT22;12081;48.614;10.226;2023-04-01T17:27:35;7.80;99.90
23801;DHT22;12081;48.614;10.226;2023-04-01T17:39:36;7.50;99.90
23801;DHT22;12081;48.614;10.226;2023-04-01T17:42:35;7.60;99.90
23801;DHT22;12081;48.614;10.226;2023-04-01T17:45:24;7.50;99.90
23801;DHT22;12081;48.614;10.226;2023-04-01T17:48:42;7.50;99.90
23801;DHT22;12081;48.614;10.226;2023-04-01T17:54:36;7.40;99.90
23801;DHT22;12081;48.614;10.226;2023-04-01T17:57:42;7.40;99.90
23801;DHT22;12081;48.614;10.226;2023-04-01T18:00:50;7.40;99.90
23801;DHT22;12081;48.614;10.226;2023-04-01T18:03:55;7.30;99.90
23801;DHT22;12081;48.614;10.226;2023-04-01T18:13:41;7.30;99.90
23801;DHT22;12081;48.614;10.226;2023-04-01T18:16:55;7.30;99.90
23801;DHT22;12081;48.614;10.226;2023-04-01T18:22:53;7.30;99.90
23801;DHT22;12081;48.614;10.226;2023-04-01T18:25:44;7.30;99.90
23801;DHT22;12081;48.614;10.226;2023-04-01T18:28:38;7.30;99.90
23801;DHT22;12081;48.614;10.226;2023-04-01T18:31:34;7.30;99.90
23801;DHT22;12081;48.614;10.226;2023-04-01T18:37:42;7.30;99.90
23801;DHT22;12081;48.614;10.226;2023-04-01T18:40:45;7.30;99.90
23801;DHT22;12081;48.614;10.226;2023-04-01T18:44:06;7.20;99.90
23801;DHT22;12081;48.614;10.226;2023-04-01T18:52:44;7.10;99.90
23801;DHT22;12081;48.614;10.226;2023-04-01T18:55:31;7.10;99.90
23801;DHT22;12081;48.614;10.226;2023-04-01T18:58:35;7.10;99.90
23801;DHT22;12081;48.614;10.226;2023-04-01T19:13:21;7.00;99.90
23801;DHT22;12081;48.614;10.226;2023-04-01T19:16:41;7.00;99.90
23801;DHT22;12081;48.614;10.226;2023-04-01T19:23:34;6.90;99.90
23801;DHT22;12081;48.614;10.226;2023-04-01T19:26:33;6.90;99.90
23801;DHT22;12081;48.614;10.226;2023-04-01T19:41:49;6.80;99.90
23801;DHT22;12081;48.614;10.226;2023-04-01T19:45:11;7.20;99.90
23801;DHT22;12081;48.614;10.226;2023-04-01T19:48:09;6.90;99.90
23801;DHT22;12081;48.614;10.226;2023-04-01T19:51:11;6.90;99.90
23801;DHT22;12081;48.614;10.226;2023-04-01T20:00:07;7.00;99.90
23801;DHT22;12081;48.614;10.226;2023-04-01T20:13:33;6.90;99.90
23801;DHT22;12081;48.614;10.226;2023-04-01T20:16:18;6.90;99.90
23801;DHT22;12081;48.614;10.226;2023-04-01T20:19:07;6.90;99.90
23801;DHT22;12081;48.614;10.226;2023-04-01T20:21:57;6.90;99.90
23801;DHT22;12081;48.614;10.226;2023-04-01T20:24:45;6.90;99.90
23801;DHT22;12081;48.614;10.226;2023-04-01T20:27:37;6.90;99.90
23801;DHT22;12081;48.614;10.226;2023-04-01T20:36:58;6.70;99.90
23801;DHT22;12081;48.614;10.226;2023-04-01T20:39:52;6.60;99.90
23801;DHT22;12081;48.614;10.226;2023-04-01T20:52:32;6.40;99.90
23801;DHT22;12081;48.614;10.226;2023-04-01T20:58:22;6.40;99.90
23801;DHT22;12081;48.614;10.226;2023-04-01T21:07:44;6.30;99.90
23801;DHT22;12081;48.614;10.226;2023-04-01T21:14:04;6.20;99.90
23801;DHT22;12081;48.614;10.226;2023-04-01T21:17:10;6.10;99.90
23801;DHT22;12081;48.614;10.226;2023-04-01T21:46:36;5.60;99.90
23801;DHT22;12081;48.614;10.226;2023-04-01T21:49:56;5.60;99.90
23801;DHT22;12081;48.614;10.226;2023-04-01T21:55:55;5.50;99.90
23801;DHT22;12081;48.614;10.226;2023-04-01T21:59:04;5.50;99.90
23801;DHT22;12081;48.614;10.226;2023-04-01T22:05:22;5.60;99.90
23801;DHT22;12081;48.614;10.226;2023-04-01T22:08:41;5.70;99.90
23801;DHT22;12081;48.614;10.226;2023-04-01T22:14:55;5.70;99.90
23801;DHT22;12081;48.614;10.226;2023-04-01T22:17:58;5.70;99.90
23801;DHT22;12081;48.614;10.226;2023-04-01T22:20:57;5.70;99.90
23801;DHT22;12081;48.614;10.226;2023-04-01T22:24:01;5.70;99.90
23801;DHT22;12081;48.614;10.226;2023-04-01T22:30:34;5.80;99.90
23801;DHT22;12081;48.614;10.226;2023-04-01T22:33:52;5.90;99.90
23801;DHT22;12081;48.614;10.226;2023-04-01T22:42:41;5.90;99.90
23801;DHT22;12081;48.614;10.226;2023-04-01T22:51:46;5.90;99.90
23801;DHT22;12081;48.614;10.226;2023-04-01T22:54:43;5.90;99.90
23801;DHT22;12081;48.614;10.226;2023-04-01T22:57:47;5.80;99.90
23801;DHT22;12081;48.614;10.226;2023-04-01T23:00:47;5.80;99.90
23801;DHT22;12081;48.614;10.226;2023-04-01T23:03:35;5.80;99.90
23801;DHT22;12081;48.614;10.226;2023-04-01T23:06:25;5.70;99.90
23801;DHT22;12081;48.614;10.226;2023-04-01T23:09:28;5.70;99.90
23801;DHT22;12081;48.614;10.226;2023-04-01T23:12:13;5.70;99.90
23801;DHT22;12081;48.614;10.226;2023-04-01T23:15:00;5.70;99.90
23801;DHT22;12081;48.614;10.226;2023-04-01T23:27:20;5.70;99.90
23801;DHT22;12081;48.614;10.226;2023-04-01T23:30:46;5.70;99.90
23801;DHT22;12081;48.614;10.226;2023-04-01T23:33:31;5.70;99.90
23801;DHT22;12081;48.614;10.226;2023-04-01T23:36:15;5.70;99.90
23801;DHT22;12081;48.614;10.226;2023-04-01T23:39:04;5.60;99.90
23801;DHT22;12081;48.614;10.226;2023-04-01T23:41:55;5.60;99.90
23801;DHT22;12081;48.614;10.226;2023-04-01T23:44:41;5.60;99.90
23801;DHT22;12081;48.614;10.226;2023-04-01T23:47:38;5.60;99.90
23801;DHT22;12081;48.614;10.226;2023-04-01T23:50:24;5.60;99.90
23801;DHT22;12081;48.614;10.226;2023-04-01T23:53:18;5.70;99.90
23801;DHT22;12081;48.614;10.226;2023-04-01T23:56:03;5.50;99.90
23801;DHT22;12081;48.614;10.226;2023-04-01T23:58:49;5.50;99.90
